sensor_id;sensor_type;location;lat;lon;timestamp;pressure;altitude;pressure_sealevel;temperature;humidity
55077;BME280;40971;44.702;11.030;2023-09-18T00:05:00;101612.41;;;19.71;100.00
55077;BME280;40971;44.702;11.030;2023-09-18T00:15:02;101623.06;;;19.58;100.00
55077;BME280;40971;44.702;11.030;2023-09-18T00:25:04;101595.75;;;19.63;100.00
55077;BME280;40971;44.702;11.030;2023-09-18T00:35:08;101589.84;;;19.67;100.00
55077;BME280;40971;44.702;11.030;2023-09-18T00:45:11;101574.03;;;19.66;100.00
55077;BME280;40971;44.702;11.030;2023-09-18T00:55:14;101560.06;;;19.64;100.00
55077;BME280;40971;44.702;11.030;2023-09-18T01:05:17;101536.44;;;19.54;99.37
55077;BME280;40971;44.702;11.030;2023-09-18T01:15:45;101543.59;;;19.41;99.25
55077;BME280;40971;44.702;11.030;2023-09-18T01:25:50;101507.94;;;19.55;100.00
55077;BME280;40971;44.702;11.030;2023-09-18T01:35:53;101533.97;;;19.46;100.00
55077;BME280;40971;44.702;11.030;2023-09-18T01:45:57;101530.94;;;19.62;100.00
55077;BME280;40971;44.702;11.030;2023-09-18T01:56:00;101539.28;;;19.46;100.00
55077;BME280;40971;44.702;11.030;2023-09-18T02:06:02;101520.34;;;19.28;100.00
55077;BME280;40971;44.702;11.030;2023-09-18T02:16:06;101536.41;;;19.41;100.00
55077;BME280;40971;44.702;11.030;2023-09-18T02:26:09;101515.84;;;19.35;100.00
55077;BME280;40971;44.702;11.030;2023-09-18T02:36:12;101509.75;;;19.41;100.00
55077;BME280;40971;44.702;11.030;2023-09-18T02:46:15;101473.81;;;19.37;100.00
55077;BME280;40971;44.702;11.030;2023-09-18T02:56:17;101422.38;;;19.56;100.00
55077;BME280;40971;44.702;11.030;2023-09-18T03:06:18;101430.59;;;19.68;100.00
55077;BME280;40971;44.702;11.030;2023-09-18T03:16:20;101435.50;;;19.77;100.00
55077;BME280;40971;44.702;11.030;2023-09-18T03:26:22;101430.59;;;19.68;100.00
55077;BME280;40971;44.702;11.030;2023-09-18T03:36:24;101392.19;;;19.49;100.00
55077;BME280;40971;44.702;11.030;2023-09-18T03:46:26;101433.44;;;19.47;100.00
55077;BME280;40971;44.702;11.030;2023-09-18T03:56:28;101449.41;;;19.40;100.00
55077;BME280;40971;44.702;11.030;2023-09-18T04:06:44;101421.50;;;19.36;100.00
55077;BME280;40971;44.702;11.030;2023-09-18T04:16:47;101444.34;;;18.91;100.00
55077;BME280;40971;44.702;11.030;2023-09-18T04:26:50;101465.88;;;18.90;100.00
55077;BME280;40971;44.702;11.030;2023-09-18T04:36:53;101473.44;;;18.86;100.00
55077;BME280;40971;44.702;11.030;2023-09-18T04:46:55;101467.91;;;18.88;100.00
55077;BME280;40971;44.702;11.030;2023-09-18T04:57:00;101476.94;;;18.93;100.00
55077;BME280;40971;44.702;11.030;2023-09-18T05:07:02;101462.41;;;18.89;100.00
55077;BME280;40971;44.702;11.030;2023-09-18T05:17:04;101484.19;;;19.06;100.00
55077;BME280;40971;44.702;11.030;2023-09-18T05:27:06;101498.63;;;19.31;100.00
55077;BME280;40971;44.702;11.030;2023-09-18T05:37:10;101476.09;;;19.40;100.00
55077;BME280;40971;44.702;11.030;2023-09-18T05:47:13;101487.00;;;19.58;100.00
55077;BME280;40971;44.702;11.030;2023-09-18T05:57:14;101507.34;;;19.92;100.00
55077;BME280;40971;44.702;11.030;2023-09-18T06:07:15;101511.47;;;20.27;100.00
55077;BME280;40971;44.702;11.030;2023-09-18T06:17:17;101523.16;;;20.53;100.00
55077;BME280;40971;44.702;11.030;2023-09-18T06:27:20;101487.00;;;20.57;100.00
55077;BME280;40971;44.702;11.030;2023-09-18T06:37:21;101463.25;;;20.80;100.00
55077;BME280;40971;44.702;11.030;2023-09-18T06:47:24;101426.06;;;20.72;100.00
55077;BME280;40971;44.702;11.030;2023-09-18T06:57:27;101459.78;;;21.24;100.00
55077;BME280;40971;44.702;11.030;2023-09-18T07:07:30;101480.44;;;21.73;99.41
55077;BME280;40971;44.702;11.030;2023-09-18T07:17:33;101490.03;;;21.87;96.40
55077;BME280;40971;44.702;11.030;2023-09-18T07:27:34;101488.19;;;21.81;95.54
55077;BME280;40971;44.702;11.030;2023-09-18T07:37:39;101489.69;;;22.08;94.59
55077;BME280;40971;44.702;11.030;2023-09-18T07:47:43;101466.94;;;22.35;93.46
55077;BME280;40971;44.702;11.030;2023-09-18T07:57:44;101461.06;;;22.45;92.06
55077;BME280;40971;44.702;11.030;2023-09-18T08:07:48;101480.97;;;22.55;90.71
55077;BME280;40971;44.702;11.030;2023-09-18T08:17:51;101461.97;;;22.14;92.56
55077;BME280;40971;44.702;11.030;2023-09-18T08:27:55;101463.81;;;22.38;93.12
55077;BME280;40971;44.702;11.030;2023-09-18T08:37:56;101465.97;;;22.30;93.05
55077;BME280;40971;44.702;11.030;2023-09-18T08:47:59;101457.59;;;22.81;90.09
55077;BME280;40971;44.702;11.030;2023-09-18T08:58:03;101467.78;;;23.20;87.26
55077;BME280;40971;44.702;11.030;2023-09-18T09:08:07;101434.75;;;23.08;87.88
55077;BME280;40971;44.702;11.030;2023-09-18T09:18:11;101443.88;;;22.89;90.89
55077;BME280;40971;44.702;11.030;2023-09-18T09:28:14;101439.00;;;23.27;87.40
55077;BME280;40971;44.702;11.030;2023-09-18T09:38:19;101434.09;;;23.65;85.88
55077;BME280;40971;44.702;11.030;2023-09-18T09:48:23;101432.69;;;23.74;83.63
55077;BME280;40971;44.702;11.030;2023-09-18T09:58:27;101416.91;;;23.55;84.27
55077;BME280;40971;44.702;11.030;2023-09-18T10:08:34;101411.66;;;23.48;85.46
55077;BME280;40971;44.702;11.030;2023-09-18T10:28:58;101379.00;;;23.74;83.59
55077;BME280;40971;44.702;11.030;2023-09-18T10:39:05;101358.09;;;23.76;84.77
55077;BME280;40971;44.702;11.030;2023-09-18T10:49:11;101344.19;;;23.91;85.45
55077;BME280;40971;44.702;11.030;2023-09-18T10:59:15;101343.94;;;23.93;83.88
55077;BME280;40971;44.702;11.030;2023-09-18T11:09:26;101330.50;;;23.93;84.28
55077;BME280;40971;44.702;11.030;2023-09-18T11:19:29;101329.03;;;23.73;83.48
55077;BME280;40971;44.702;11.030;2023-09-18T11:29:36;101323.44;;;23.63;85.30
55077;BME280;40971;44.702;11.030;2023-09-18T11:39:39;101301.22;;;23.80;84.35
55077;BME280;40971;44.702;11.030;2023-09-18T11:49:56;101279.69;;;24.26;82.68
55077;BME280;40971;44.702;11.030;2023-09-18T12:00:00;101291.09;;;25.23;80.71
55077;BME280;40971;44.702;11.030;2023-09-18T12:10:16;101294.81;;;25.38;77.74
55077;BME280;40971;44.702;11.030;2023-09-18T12:20:18;101271.56;;;25.49;76.64
55077;BME280;40971;44.702;11.030;2023-09-18T12:30:23;101267.06;;;25.38;77.08
55077;BME280;40971;44.702;11.030;2023-09-18T12:40:28;101273.78;;;25.19;77.85
55077;BME280;40971;44.702;11.030;2023-09-18T12:50:32;101260.13;;;24.75;79.21
55077;BME280;40971;44.702;11.030;2023-09-18T13:00:45;101263.78;;;24.69;81.02
55077;BME280;40971;44.702;11.030;2023-09-18T13:10:48;101246.31;;;24.83;81.16
55077;BME280;40971;44.702;11.030;2023-09-18T13:20:57;101252.09;;;25.09;80.51
55077;BME280;40971;44.702;11.030;2023-09-18T13:30:58;101226.97;;;24.70;81.83
55077;BME280;40971;44.702;11.030;2023-09-18T13:41:02;101219.53;;;24.60;83.31
55077;BME280;40971;44.702;11.030;2023-09-18T13:51:07;101201.91;;;24.81;83.76
55077;BME280;40971;44.702;11.030;2023-09-18T14:01:11;101210.03;;;24.86;84.02
55077;BME280;40971;44.702;11.030;2023-09-18T14:11:12;101218.38;;;24.84;84.38
55077;BME280;40971;44.702;11.030;2023-09-18T14:21:14;101207.47;;;25.13;82.36
55077;BME280;40971;44.702;11.030;2023-09-18T14:31:16;101212.28;;;25.27;80.90
55077;BME280;40971;44.702;11.030;2023-09-18T14:41:20;101202.16;;;25.34;80.10
55077;BME280;40971;44.702;11.030;2023-09-18T14:51:24;101191.44;;;25.18;81.47
55077;BME280;40971;44.702;11.030;2023-09-18T15:01:27;101163.25;;;24.87;83.86
55077;BME280;40971;44.702;11.030;2023-09-18T15:11:29;101198.63;;;24.79;83.65
55077;BME280;40971;44.702;11.030;2023-09-18T15:21:30;101180.19;;;24.87;83.74
55077;BME280;40971;44.702;11.030;2023-09-18T15:31:31;101181.00;;;24.71;86.80
55077;BME280;40971;44.702;11.030;2023-09-18T15:41:34;101170.50;;;24.53;89.99
55077;BME280;40971;44.702;11.030;2023-09-18T15:51:37;101127.63;;;24.30;90.26
55077;BME280;40971;44.702;11.030;2023-09-18T16:01:39;101146.34;;;23.97;92.33
55077;BME280;40971;44.702;11.030;2023-09-18T16:11:42;101077.66;;;24.01;89.52
55077;BME280;40971;44.702;11.030;2023-09-18T16:21:44;101125.09;;;24.40;87.25
55077;BME280;40971;44.702;11.030;2023-09-18T16:31:46;101109.63;;;23.86;89.72
55077;BME280;40971;44.702;11.030;2023-09-18T16:41:47;101032.22;;;23.83;88.67
55077;BME280;40971;44.702;11.030;2023-09-18T16:51:51;101051.25;;;23.64;88.84
55077;BME280;40971;44.702;11.030;2023-09-18T17:01:54;101071.38;;;23.50;87.81
55077;BME280;40971;44.702;11.030;2023-09-18T17:11:57;101049.91;;;22.99;92.14
55077;BME280;40971;44.702;11.030;2023-09-18T17:21:59;101062.94;;;23.07;91.90
55077;BME280;40971;44.702;11.030;2023-09-18T17:32:06;101099.34;;;22.91;91.14
55077;BME280;40971;44.702;11.030;2023-09-18T17:42:11;101117.03;;;22.57;91.70
55077;BME280;40971;44.702;11.030;2023-09-18T17:52:13;101103.06;;;22.67;92.34
55077;BME280;40971;44.702;11.030;2023-09-18T18:02:18;101095.94;;;22.49;93.21
55077;BME280;40971;44.702;11.030;2023-09-18T18:12:20;101111.38;;;22.13;95.11
55077;BME280;40971;44.702;11.030;2023-09-18T18:22:23;101116.56;;;21.96;96.59
55077;BME280;40971;44.702;11.030;2023-09-18T18:32:25;101117.31;;;21.85;97.07
55077;BME280;40971;44.702;11.030;2023-09-18T18:42:26;101117.94;;;21.69;96.72
55077;BME280;40971;44.702;11.030;2023-09-18T18:52:29;101106.66;;;21.48;97.21
55077;BME280;40971;44.702;11.030;2023-09-18T19:02:32;101099.25;;;21.32;97.82
55077;BME280;40971;44.702;11.030;2023-09-18T19:12:35;101090.66;;;21.12;99.40
55077;BME280;40971;44.702;11.030;2023-09-18T19:22:37;101095.28;;;20.99;99.63
55077;BME280;40971;44.702;11.030;2023-09-18T19:32:41;101105.06;;;20.86;100.00
55077;BME280;40971;44.702;11.030;2023-09-18T19:42:44;101116.59;;;20.87;100.00
55077;BME280;40971;44.702;11.030;2023-09-18T19:52:47;101133.97;;;20.96;100.00
55077;BME280;40971;44.702;11.030;2023-09-18T20:02:50;101120.97;;;21.00;98.73
55077;BME280;40971;44.702;11.030;2023-09-18T20:12:53;101134.53;;;20.80;97.49
55077;BME280;40971;44.702;11.030;2023-09-18T20:22:58;101157.22;;;20.96;95.39
55077;BME280;40971;44.702;11.030;2023-09-18T20:33:03;101142.53;;;20.80;93.71
55077;BME280;40971;44.702;11.030;2023-09-18T20:43:08;101128.56;;;20.60;92.65
55077;BME280;40971;44.702;11.030;2023-09-18T20:53:13;101141.84;;;20.42;97.48
55077;BME280;40971;44.702;11.030;2023-09-18T21:03:15;101130.88;;;20.18;99.81
55077;BME280;40971;44.702;11.030;2023-09-18T21:13:17;101116.25;;;20.27;99.89
55077;BME280;40971;44.702;11.030;2023-09-18T21:23:20;101107.72;;;20.44;97.13
55077;BME280;40971;44.702;11.030;2023-09-18T21:33:22;101103.75;;;20.28;96.52
55077;BME280;40971;44.702;11.030;2023-09-18T21:43:24;101088.50;;;20.04;96.85
55077;BME280;40971;44.702;11.030;2023-09-18T21:53:26;101072.25;;;20.05;97.66
55077;BME280;40971;44.702;11.030;2023-09-18T22:03:28;101073.47;;;20.09;96.86
55077;BME280;40971;44.702;11.030;2023-09-18T22:13:32;101081.09;;;19.99;97.08
55077;BME280;40971;44.702;11.030;2023-09-18T22:23:35;101085.19;;;20.02;96.51
55077;BME280;40971;44.702;11.030;2023-09-18T22:33:37;101077.66;;;19.61;96.62
55077;BME280;40971;44.702;11.030;2023-09-18T23:04:23;101104.34;;;19.54;98.04
55077;BME280;40971;44.702;11.030;2023-09-18T23:14:24;101117.50;;;19.56;97.17
55077;BME280;40971;44.702;11.030;2023-09-18T23:24:26;101125.25;;;19.64;96.15
55077;BME280;40971;44.702;11.030;2023-09-18T23:34:30;101118.91;;;19.58;96.09
55077;BME280;40971;44.702;11.030;2023-09-18T23:44:34;101128.56;;;19.53;94.77
55077;BME280;40971;44.702;11.030;2023-09-18T23:54:38;101116.94;;;19.34;95.22
